• Join FlightAware (Why Join?)
  • Login
  • US Flag 
03:25AM EDT


 

Airport Tracker/Info


-or-


 

Live Flight TrackerFlight Track Log ✈ SWA2130 ✈ 05-May-2013 ✈ KLAX - KELP

Flight Track Log - Related Links

Times and Time Zones

All times are in EDT time to prevent confusion due to time zone crossing. See the SWA2130 flight status page for this flight to view local times or setup timezone preferences in your user account.

Time Position Orientation Groundspeed Altitude Reporting Facility
EDT Latitude Longitude Course Direction KTS MPH feet Rate Location/Type
09:42PM 33.9400 -118.3500 93° East 172 198 2,400  Level Los Angeles Center
09:43PM 33.9097 -118.2792 117° Southeast 255 293 5,600 3,240 Climbing Los Angeles Center
09:44PM 33.8664 -118.2031 124° Southeast 267 307 9,200 3,120 Climbing Los Angeles Center
09:45PM 33.8156 -118.1114 124° Southeast 321 369 12,100 3,000 Climbing Los Angeles Center
09:46PM 33.7794 -118.0000 111° Southeast 368 423 15,400 2,460 Climbing Los Angeles Center
09:47PM 33.7700 -117.8692 95° East 393 452 17,300 2,280 Climbing Los Angeles Center
09:48PM 33.7581 -117.7239 96° East 431 496 20,100 2,760 Climbing Los Angeles Center
09:49PM 33.7433 -117.5458 96° East 447 514 23,000 2,400 Climbing Los Angeles Center
09:50PM 33.7314 -117.3894 95° East 467 537 25,200 1,980 Climbing Los Angeles Center
09:51PM 33.7186 -117.2311 95° East 479 551 27,200 1,860 Climbing Los Angeles Center
09:53PM 33.7033 -117.0717 97° East 482 555 29,400 1,860 Climbing Los Angeles Center
09:54PM 33.6781 -116.8792 99° East 489 563 31,500 1,980 Climbing Los Angeles Center
09:55PM 33.6553 -116.6983 99° East 490 564 33,600 1,860 Climbing Los Angeles Center
09:56PM 33.6339 -116.5372 99° East 488 562 35,400 1,500 Climbing Los Angeles Center
09:57PM 33.6122 -116.3767 99° East 486 559 36,700 1,260 Climbing Los Angeles Center
09:58PM 33.5906 -116.2172 99° East 483 556 38,000 1,080 Climbing Los Angeles Center
09:59PM 33.5681 -116.0544 99° East 490 564 39,000 480 Climbing Los Angeles Center
10:00PM 33.5450 -115.8939 100° East 490 564 39,000  Level Los Angeles Center
10:01PM 33.5228 -115.7331 99° East 489 563 39,000  Level Los Angeles Center
10:02PM 33.4956 -115.5422 100° East 484 557 39,000  Level Los Angeles Center
10:03PM 33.4728 -115.3825 100° East 487 560 39,000  Level Los Angeles Center
10:04PM 33.4494 -115.2244 100° East 484 557 39,000  Level Los Angeles Center
10:05PM 33.4261 -115.0664 100° East 483 556 39,000  Level Los Angeles Center
10:06PM 33.4036 -114.9067 100° East 492 566 39,000  Level Los Angeles Center
10:07PM 33.3794 -114.7469 100° East 491 565 39,000  Level Los Angeles Center
10:08PM 33.3567 -114.5881 100° East 490 564 39,000  Level Los Angeles Center
10:09PM 33.3414 -114.4658 98° East 490 564 39,000  Level Albuquerque Center
10:10PM 33.3178 -114.3069 100° East 489 563 39,000  Level Albuquerque Center
10:11PM 33.2922 -114.1478 101° East 488 562 39,000  Level Albuquerque Center
10:12PM 33.2683 -113.9892 100° East 487 560 39,000  Level Albuquerque Center
10:13PM 33.2436 -113.8286 100° East 490 564 39,000  Level Albuquerque Center
10:14PM 33.2131 -113.6392 101° East 486 559 39,000  Level Albuquerque Center
10:15PM 33.1886 -113.4797 100° East 487 560 39,000  Level Albuquerque Center
10:16PM 33.1667 -113.3194 99° East 487 560 39,000  Level Albuquerque Center
10:17PM 33.1447 -113.1592 99° East 488 562 39,000  Level Albuquerque Center
10:18PM 33.1214 -112.9967 100° East 493 567 39,000  Level Albuquerque Center
10:19PM 33.1000 -112.8353 99° East 492 566 39,000  Level Albuquerque Center
10:20PM 33.0775 -112.6733 99° East 492 566 39,000  Level Albuquerque Center
10:21PM 33.0553 -112.5131 99° East 490 564 39,000  Level Albuquerque Center
10:22PM 33.0331 -112.3531 99° East 488 562 39,000  Level Albuquerque Center
10:23PM 33.0094 -112.1731 99° East 491 565 39,000  Level Albuquerque Center
10:24PM 32.9875 -112.0211 100° East 486 559 39,000  Level Albuquerque Center
10:25PM 32.9650 -111.8647 100° East 483 556 39,000  Level Albuquerque Center
10:26PM 32.9419 -111.7078 100° East 484 557 39,000  Level Albuquerque Center
10:27PM 32.9197 -111.5492 99° East 487 560 39,000  Level Albuquerque Center
10:28PM 32.8967 -111.3914 100° East 487 560 39,000  Level Albuquerque Center
10:29PM 32.8731 -111.2317 100° East 492 566 39,000  Level Albuquerque Center
10:30PM 32.8444 -111.0406 100° East 491 565 39,000  Level Albuquerque Center
10:31PM 32.8192 -110.8806 101° East 494 568 39,000  Level Albuquerque Center
10:32PM 32.7958 -110.7208 100° East 494 568 39,000  Level Albuquerque Center
10:33PM 32.7686 -110.5489 101° East 494 568 39,000  Level Albuquerque Center
10:34PM 32.7442 -110.3903 100° East 493 567 39,000  Level Albuquerque Center
10:35PM 32.7325 -110.2275 95° East 501 577 39,000  Level Albuquerque Center
10:36PM 32.7397 -110.0622 87° East 506 582 39,000  Level Albuquerque Center
10:37PM 32.7450 -109.8939 88° East 513 590 39,000  Level Albuquerque Center
10:38PM 32.7544 -109.7278 86° East 510 587 39,000  Level Albuquerque Center
10:39PM 32.7633 -109.5619 86° East 509 586 39,000  Level Albuquerque Center
10:40PM 32.7581 -109.3647 92° East 500 575 39,000  Level Albuquerque Center
10:41PM 32.7169 -109.2122 108° East 494 568 39,000  Level Albuquerque Center
10:42PM 32.6758 -109.0611 108° East 491 565 39,000  Level Albuquerque Center
10:43PM 32.6350 -108.9083 108° East 494 568 39,000  Level Albuquerque Center
10:45PM 32.5933 -108.7564 108° East 495 570 39,000  Level Albuquerque Center
10:46PM 32.5517 -108.6031 108° East 495 570 39,000 -1,380 Level Albuquerque Center
10:47PM 32.5014 -108.4214 108° East 491 565 36,200 -2,880 Descending Albuquerque Center
10:48PM 32.4594 -108.2686 108° East 493 567 33,200 -1,620 Descending Albuquerque Center
10:49PM 32.4183 -108.1244 109° East 485 558 33,000 -120 Descending Albuquerque Center
10:50PM 32.3781 -107.9764 108° East 476 548 33,000  Level Albuquerque Center
10:51PM 32.3386 -107.8194 107° East 494 568 33,000  Level Albuquerque Center
10:52PM 32.3022 -107.6608 105° East 501 577 33,000 -2,220 Level Albuquerque Center
10:53PM 32.2633 -107.5019 106° East 503 579 28,500 -4,080 Descending Albuquerque Center
10:54PM 32.2225 -107.3444 107° East 505 581 24,700 -3,840 Descending Albuquerque Center
10:55PM 32.1803 -107.1664 106° East 478 550 20,700 -3,480 Descending Albuquerque Center
10:55PM 32.1661 -107.1169 109° East 455 524 19,900 -2,100 Descending Albuquerque Center
10:56PM 32.1469 -107.0375 106° East 439 505 18,600 -1,860 Descending Albuquerque Center
10:56PM 32.1397 -107.0156 111° Southeast 405 466 18,200 -1,680 Descending Albuquerque Center
10:57PM 32.1167 -106.9197 106° East 394 453 16,900 -1,920 Descending Albuquerque Center
10:57PM 32.1108 -106.8997 109° East 346 398 16,300 -2,580 Descending Albuquerque Center
10:58PM 32.0900 -106.8100 105° East 356 410 14,300 -2,700 Descending Albuquerque Center
10:59PM 32.0553 -106.6831 108° East 340 391 11,100 -1,920 Descending Albuquerque Center
11:00PM 32.0275 -106.5747 107° East 323 372 10,200 -720 Descending Albuquerque Center
11:01PM 32.0114 -106.5103 106° East 288 331 9,800 -540 Descending Albuquerque Center
11:02PM 31.9750 -106.4250 117° Southeast 240 276 9,200 -840 Descending Albuquerque Center
11:03PM 31.9644 -106.3558 100° East 224 258 8,200 -1,140 Descending Albuquerque Center
11:04PM 31.9267 -106.3225 143° Southeast 212 244 7,000 -1,080 Descending Albuquerque Center
11:05PM 31.8756 -106.3597 212° Southwest 214 246 5,900 -840 Descending Albuquerque Center
11:06PM 31.8661 -106.4214 260° West 227 261 5,300 -600 Descending Albuquerque Center
11:07PM 31.8225 -106.4453 205° Southwest 170 196 4,800 -540 Descending Albuquerque Center
11:08PM 31.8039 -106.4144 125° Southeast 138 159 4,300 -480 Descending Albuquerque Center
11:09PM 31.8017 -106.3736 94° East 130 150 3,900 -420 Descending Albuquerque Center
11:11PM 31.8000 -106.3667 North  Level FlightAware Approximate
11:18PM 31.8072 -106.3764 North  Level Estimated
11:19PM 31.8072 -106.3764 North  Level Estimated
11:20PM 31.8072 -106.3764 North  Level Estimated
11:21PM 31.8072 -106.3764 North  Level Estimated